createdAt,value
2019-05-06T00:00:51.911Z,94.80
2019-05-06T00:03:10.993Z,94.80
2019-05-06T00:05:41.112Z,94.80
2019-05-06T00:08:11.314Z,95.10
2019-05-06T00:10:41.471Z,94.90
2019-05-06T00:13:13.917Z,95.40
2019-05-06T00:15:43.657Z,95.40
2019-05-06T00:18:14.034Z,94.90
2019-05-06T00:20:44.172Z,95.30
2019-05-06T00:23:25.794Z,95.90
2019-05-06T00:26:14.066Z,95.70
2019-05-06T00:28:56.163Z,95.40
2019-05-06T00:31:26.432Z,95.40
2019-05-06T00:33:56.540Z,96.00
2019-05-06T00:36:26.610Z,96.40
2019-05-06T00:39:00.017Z,96.70
2019-05-06T00:41:35.913Z,96.70
2019-05-06T00:44:04.260Z,96.50
2019-05-06T00:46:34.606Z,96.20
2019-05-06T00:49:04.822Z,96.40
2019-05-06T00:51:34.875Z,96.40
2019-05-06T00:54:14.326Z,96.40
2019-05-06T00:56:44.774Z,96.60
2019-05-06T00:59:15.070Z,96.70
2019-05-06T01:01:45.298Z,96.60
2019-05-06T01:04:15.449Z,96.50
2019-05-06T01:06:45.606Z,97.10
2019-05-06T01:09:18.958Z,97.30
2019-05-06T01:11:51.318Z,97.30
2019-05-06T01:14:30.466Z,97.60
2019-05-06T01:17:00.682Z,97.60
2019-05-06T01:19:30.902Z,97.60
2019-05-06T01:22:00.987Z,97.70
2019-05-06T01:24:31.165Z,97.60
2019-05-06T01:27:01.346Z,98.10
2019-05-06T01:29:31.980Z,97.70
2019-05-06T01:32:03.659Z,97.80
2019-05-06T01:34:34.178Z,97.90
2019-05-06T01:37:04.477Z,97.90
2019-05-06T01:39:43.589Z,97.80
2019-05-06T01:42:21.099Z,97.80
2019-05-06T01:44:51.326Z,97.90
2019-05-06T01:47:23.643Z,98.10
2019-05-06T01:49:53.857Z,98.20
2019-05-06T01:52:24.213Z,98.80
2019-05-06T01:54:54.514Z,99.80
2019-05-06T01:57:24.585Z,99.90
2019-05-06T01:59:54.743Z,99.60
2019-05-06T02:02:24.986Z,99.40
2019-05-06T02:04:55.073Z,99.70
2019-05-06T02:07:25.243Z,99.90
2019-05-06T02:10:07.458Z,99.90
2019-05-06T02:12:37.587Z,99.90
2019-05-06T02:15:07.806Z,99.90
2019-05-06T02:17:38.029Z,99.90
2019-05-06T02:20:09.201Z,99.90
2019-05-06T02:23:04.358Z,99.90
2019-05-06T02:25:41.562Z,99.90
2019-05-06T02:28:11.685Z,99.90
2019-05-06T02:31:05.556Z,99.90
2019-05-06T02:34:06.804Z,99.90
2019-05-06T02:37:06.253Z,99.90
2019-05-06T02:39:36.815Z,99.90
2019-05-06T02:42:08.137Z,99.90
2019-05-06T02:44:38.300Z,99.90
2019-05-06T02:47:26.359Z,99.90
2019-05-06T02:49:59.783Z,99.90
2019-05-06T02:52:32.761Z,99.90
2019-05-06T02:55:01.891Z,99.90
2019-05-06T02:57:33.485Z,99.90
2019-05-06T03:00:05.313Z,99.90
2019-05-06T03:02:43.229Z,99.90
2019-05-06T03:05:08.767Z,99.90
2019-05-06T03:07:38.914Z,99.90
2019-05-06T03:10:13.117Z,99.90
2019-05-06T03:12:43.325Z,99.90
2019-05-06T03:15:16.619Z,99.90
2019-05-06T03:17:45.396Z,99.90
2019-05-06T03:20:26.303Z,99.90
2019-05-06T03:23:03.704Z,99.90
2019-05-06T03:25:35.624Z,99.90
2019-05-06T03:28:05.828Z,99.90
2019-05-06T03:30:36.616Z,99.90
2019-05-06T03:35:52.300Z,99.90
2019-05-06T03:38:13.743Z,99.90
2019-05-06T03:40:45.825Z,99.90
2019-05-06T03:43:16.060Z,99.90
2019-05-06T03:46:00.079Z,99.90
2019-05-06T03:48:33.599Z,99.90
2019-05-06T03:51:04.266Z,99.90
2019-05-06T03:53:36.675Z,99.90
2019-05-06T03:56:06.766Z,99.90
2019-05-06T03:58:37.844Z,99.80
2019-05-06T04:01:08.084Z,99.50
2019-05-06T04:03:46.982Z,98.70
2019-05-06T04:06:13.535Z,98.60
2019-05-06T04:08:43.682Z,98.10
2019-05-06T04:11:17.795Z,98.30
2019-05-06T04:13:49.108Z,98.30
2019-05-06T04:16:34.017Z,98.10
2019-05-06T04:19:13.038Z,98.30
2019-05-06T04:21:53.169Z,98.20
2019-05-06T04:24:53.969Z,97.60
2019-05-06T04:27:36.118Z,98.20
2019-05-06T04:30:06.419Z,97.70
2019-05-06T04:32:36.710Z,97.70
2019-05-06T04:35:07.328Z,97.70
2019-05-06T04:37:37.632Z,97.20
2019-05-06T04:40:08.467Z,97.60
2019-05-06T04:42:38.873Z,97.10
2019-05-06T04:45:09.212Z,97.20
2019-05-06T04:47:39.419Z,96.90
2019-05-06T04:50:09.580Z,96.70
2019-05-06T04:52:42.869Z,96.70
2019-05-06T04:55:13.933Z,96.80
2019-05-06T04:57:44.794Z,96.30
2019-05-06T05:00:18.164Z,96.70
2019-05-06T05:02:48.190Z,96.20
2019-05-06T05:05:19.445Z,96.20
2019-05-06T05:07:49.578Z,96.40
2019-05-06T05:10:24.018Z,95.90
2019-05-06T05:13:16.082Z,95.60
2019-05-06T05:16:02.132Z,96.10
2019-05-06T05:18:56.537Z,95.50
2019-05-06T05:21:26.733Z,96.10
2019-05-06T05:23:56.954Z,95.20
2019-05-06T05:26:27.875Z,95.60
2019-05-06T05:28:58.002Z,95.10
2019-05-06T05:31:28.176Z,95.20
2019-05-06T05:33:58.393Z,95.10
2019-05-06T05:36:28.517Z,95.00
2019-05-06T05:38:58.841Z,95.00
2019-05-06T05:41:28.890Z,94.90
2019-05-06T05:44:12.037Z,94.40
2019-05-06T05:46:43.839Z,94.80
2019-05-06T05:49:28.712Z,94.40
2019-05-06T05:51:58.777Z,94.30
2019-05-06T05:54:28.822Z,94.50
2019-05-06T05:56:59.857Z,94.30
2019-05-06T05:59:32.710Z,94.10
2019-05-06T06:02:03.812Z,94.30
2019-05-06T06:04:35.815Z,93.80
2019-05-06T06:07:06.242Z,93.40
2019-05-06T06:09:43.993Z,93.70
2019-05-06T06:12:14.499Z,93.20
2019-05-06T06:14:55.593Z,93.00
2019-05-06T06:17:34.542Z,93.10
2019-05-06T06:20:24.171Z,92.80
2019-05-06T06:22:55.825Z,92.80
2019-05-06T06:25:26.023Z,92.70
2019-05-06T06:27:56.454Z,93.00
2019-05-06T06:30:35.837Z,92.70
2019-05-06T06:33:06.015Z,92.40
2019-05-06T06:35:46.619Z,92.20
2019-05-06T06:38:24.134Z,92.10
2019-05-06T06:40:55.710Z,91.20
2019-05-06T06:43:27.138Z,91.10
2019-05-06T06:45:57.306Z,90.60
2019-05-06T06:48:28.025Z,90.80
2019-05-06T06:50:58.318Z,88.10
2019-05-06T06:53:28.463Z,86.90
2019-05-06T06:56:17.557Z,86.90
2019-05-06T06:59:12.754Z,86.90
2019-05-06T07:01:53.466Z,83.90
2019-05-06T07:04:32.443Z,81.60
2019-05-06T07:07:03.714Z,81.80
2019-05-06T07:09:33.825Z,82.00
2019-05-06T07:12:04.060Z,80.30
2019-05-06T07:14:36.192Z,77.50
2019-05-06T07:17:06.077Z,80.30
2019-05-06T07:19:43.631Z,79.00
2019-05-06T07:22:13.878Z,78.60
2019-05-06T07:24:44.011Z,77.30
2019-05-06T07:27:18.516Z,72.30
2019-05-06T07:29:48.860Z,74.20
2019-05-06T07:32:23.031Z,71.00
2019-05-06T07:34:53.262Z,69.40
2019-05-06T07:37:23.592Z,71.20
2019-05-06T07:39:55.314Z,68.20
2019-05-06T07:42:34.338Z,68.50
2019-05-06T07:45:38.951Z,66.60
2019-05-06T07:48:12.777Z,69.40
2019-05-06T07:50:43.174Z,67.10
2019-05-06T07:53:14.318Z,63.40
2019-05-06T07:55:44.354Z,66.00
2019-05-06T07:58:14.518Z,64.40
2019-05-06T08:00:44.643Z,64.50
2019-05-06T08:03:14.846Z,64.80
2019-05-06T08:05:55.137Z,63.70
2019-05-06T08:08:16.690Z,63.10
2019-05-06T08:10:46.841Z,62.60
2019-05-06T08:13:16.882Z,62.30
2019-05-06T08:15:47.071Z,59.50
2019-05-06T08:18:23.766Z,58.30
2019-05-06T08:20:53.878Z,59.70
2019-05-06T08:23:36.042Z,57.80
2019-05-06T08:26:12.137Z,58.10
2019-05-06T08:28:41.454Z,56.20
2019-05-06T08:31:09.836Z,54.50
2019-05-06T08:33:39.974Z,53.30
2019-05-06T08:36:14.930Z,53.90
2019-05-06T08:38:58.160Z,51.50
2019-05-06T08:41:28.603Z,50.60
2019-05-06T08:43:58.706Z,54.50
2019-05-06T08:46:28.829Z,53.10
2019-05-06T08:48:59.083Z,52.10
2019-05-06T08:51:44.230Z,50.60
2019-05-06T08:54:22.705Z,46.00
2019-05-06T08:56:53.526Z,44.40
2019-05-06T08:59:24.140Z,44.90
2019-05-06T09:01:54.714Z,43.50
2019-05-06T09:04:24.914Z,43.10
2019-05-06T09:06:55.075Z,43.50
2019-05-06T09:09:25.198Z,43.10
2019-05-06T09:11:55.370Z,43.50
2019-05-06T09:14:25.489Z,45.80
2019-05-06T09:16:55.705Z,46.10
2019-05-06T09:19:25.882Z,45.40
2019-05-06T09:21:55.942Z,45.50
2019-05-06T09:24:26.059Z,45.20
2019-05-06T09:27:16.094Z,44.60
2019-05-06T09:29:48.500Z,46.40
2019-05-06T09:32:29.202Z,47.30
2019-05-06T09:35:02.710Z,49.30
2019-05-06T09:37:32.601Z,49.50
2019-05-06T09:40:03.104Z,49.40
2019-05-06T09:42:35.238Z,50.70
2019-05-06T09:45:05.849Z,49.10
2019-05-06T09:47:53.479Z,48.10
2019-05-06T09:50:39.806Z,48.80
2019-05-06T09:53:14.976Z,49.00
2019-05-06T09:56:03.491Z,48.60
2019-05-06T09:58:37.253Z,49.80
2019-05-06T10:01:09.046Z,50.20
2019-05-06T10:03:39.355Z,50.20
2019-05-06T10:06:09.635Z,49.00
2019-05-06T10:08:39.894Z,48.60
2019-05-06T10:11:10.000Z,47.40
2019-05-06T10:13:40.370Z,47.40
2019-05-06T10:16:12.818Z,46.70
2019-05-06T10:18:42.558Z,45.70
2019-05-06T10:21:12.878Z,45.80
2019-05-06T10:23:43.137Z,46.70
2019-05-06T10:26:13.404Z,47.40
2019-05-06T10:28:54.458Z,46.80
2019-05-06T10:31:24.650Z,45.50
2019-05-06T10:34:14.375Z,46.00
2019-05-06T10:37:15.327Z,44.80
2019-05-06T10:39:43.518Z,45.50
2019-05-06T10:42:17.338Z,45.50
2019-05-06T10:45:02.060Z,46.90
2019-05-06T10:47:34.074Z,48.20
2019-05-06T10:50:04.386Z,48.70
2019-05-06T10:52:53.605Z,48.50
2019-05-06T10:55:23.770Z,48.10
2019-05-06T10:57:53.958Z,47.30
2019-05-06T11:00:24.307Z,43.80
2019-05-06T11:03:14.982Z,45.20
2019-05-06T11:05:46.406Z,45.60
2019-05-06T11:08:16.623Z,47.40
2019-05-06T11:10:46.750Z,48.80
2019-05-06T11:13:16.965Z,48.60
2019-05-06T11:15:47.155Z,47.50
2019-05-06T11:18:17.409Z,48.50
2019-05-06T11:20:48.639Z,46.90
2019-05-06T11:23:18.706Z,45.50
2019-05-06T11:25:48.954Z,45.70
2019-05-06T11:28:36.338Z,46.40
2019-05-06T11:31:23.037Z,45.40
2019-05-06T11:34:02.251Z,42.50
2019-05-06T11:36:37.671Z,42.50
2019-05-06T11:39:08.086Z,44.20
2019-05-06T11:41:38.498Z,47.50
2019-05-06T11:44:09.275Z,47.00
2019-05-06T11:46:39.728Z,47.00
2019-05-06T11:49:12.287Z,45.00
2019-05-06T11:51:43.492Z,45.10
2019-05-06T11:54:19.397Z,44.80
2019-05-06T11:56:50.948Z,44.60
2019-05-06T11:59:17.843Z,44.20
2019-05-06T12:01:54.176Z,45.10
2019-05-06T12:04:24.310Z,45.00
2019-05-06T12:07:09.965Z,44.30
2019-05-06T12:09:26.393Z,45.00
2019-05-06T12:11:56.937Z,45.70
2019-05-06T12:14:27.082Z,46.00
2019-05-06T12:16:57.330Z,45.50
2019-05-06T12:19:27.437Z,45.20
2019-05-06T12:21:57.822Z,45.50
2019-05-06T12:24:27.931Z,46.80
2019-05-06T12:26:58.074Z,45.50
2019-05-06T12:29:28.295Z,45.40
2019-05-06T12:32:12.395Z,45.60
2019-05-06T12:34:42.981Z,44.10
2019-05-06T12:37:15.167Z,42.40
2019-05-06T12:39:53.191Z,42.10
2019-05-06T12:42:28.590Z,43.30
2019-05-06T12:45:16.060Z,42.70
2019-05-06T12:47:58.291Z,42.70
2019-05-06T12:50:28.450Z,43.30
2019-05-06T12:52:58.596Z,42.50
2019-05-06T12:55:29.186Z,41.20
2019-05-06T12:57:59.373Z,41.20
2019-05-06T13:00:32.269Z,41.00
2019-05-06T13:03:02.754Z,41.30
2019-05-06T13:05:32.872Z,41.30
2019-05-06T13:08:05.400Z,41.00
2019-05-06T13:10:35.096Z,41.50
2019-05-06T13:13:05.470Z,41.60
2019-05-06T13:15:35.685Z,40.50
2019-05-06T13:18:07.758Z,41.10
2019-05-06T13:20:38.977Z,41.40
2019-05-06T13:23:25.734Z,40.10
2019-05-06T13:25:54.954Z,40.60
2019-05-06T13:28:30.312Z,41.00
2019-05-06T13:31:13.423Z,40.80
2019-05-06T13:33:35.659Z,41.70
2019-05-06T13:36:05.888Z,41.60
2019-05-06T13:38:36.151Z,40.80
2019-05-06T13:41:06.318Z,40.50
2019-05-06T13:43:43.901Z,40.60
2019-05-06T13:46:33.442Z,40.50
2019-05-06T13:49:28.656Z,41.30
2019-05-06T13:52:04.659Z,40.30
2019-05-06T13:54:34.864Z,40.00
2019-05-06T13:57:05.116Z,39.20
2019-05-06T13:59:36.988Z,39.80
2019-05-06T14:02:18.825Z,39.60
2019-05-06T14:04:48.978Z,39.00
2019-05-06T14:07:19.147Z,39.90
2019-05-06T14:09:49.495Z,40.80
2019-05-06T14:12:21.930Z,40.90
2019-05-06T14:14:52.675Z,42.80
2019-05-06T14:17:23.073Z,40.60
2019-05-06T14:19:53.589Z,40.20
2019-05-06T14:22:24.853Z,40.10
2019-05-06T14:25:12.920Z,40.30
2019-05-06T14:27:46.088Z,41.30
2019-05-06T14:30:22.778Z,40.20
2019-05-06T14:32:53.015Z,40.60
2019-05-06T14:35:23.222Z,41.20
2019-05-06T14:37:53.432Z,39.00
2019-05-06T14:40:25.147Z,39.30
2019-05-06T14:42:55.298Z,39.70
2019-05-06T14:45:25.659Z,39.50
2019-05-06T14:47:55.916Z,39.20
2019-05-06T14:50:31.768Z,38.60
2019-05-06T14:52:58.082Z,38.20
2019-05-06T14:55:32.713Z,38.70
2019-05-06T14:58:04.506Z,39.80
2019-05-06T15:00:35.821Z,39.70
2019-05-06T15:03:06.050Z,39.80
2019-05-06T15:05:36.410Z,41.00
2019-05-06T15:08:07.686Z,39.90
2019-05-06T15:10:37.811Z,41.10
2019-05-06T15:13:07.966Z,40.90
2019-05-06T15:15:39.198Z,40.80
2019-05-06T15:18:09.363Z,39.90
2019-05-06T15:20:39.695Z,41.20
2019-05-06T15:23:09.843Z,41.80
2019-05-06T15:25:40.125Z,41.70
2019-05-06T15:28:10.429Z,42.10
2019-05-06T15:30:52.635Z,41.70
2019-05-06T15:33:24.990Z,42.00
2019-05-06T15:36:13.741Z,42.40
2019-05-06T15:38:43.910Z,41.30
2019-05-06T15:41:14.063Z,41.20
2019-05-06T15:43:44.171Z,41.30
2019-05-06T15:46:14.365Z,40.80
2019-05-06T15:48:44.533Z,41.70
2019-05-06T15:51:14.697Z,41.80
2019-05-06T15:53:44.970Z,41.70
2019-05-06T15:56:15.187Z,41.60
2019-05-06T15:58:45.400Z,41.50
2019-05-06T16:01:15.779Z,41.90
2019-05-06T16:03:45.930Z,42.80
2019-05-06T16:06:16.095Z,42.60
2019-05-06T16:08:46.371Z,42.80
2019-05-06T16:11:16.612Z,42.50
2019-05-06T16:13:46.910Z,42.40
2019-05-06T16:16:17.478Z,42.70
2019-05-06T16:18:47.668Z,43.10
2019-05-06T16:21:17.854Z,43.80
2019-05-06T16:23:55.363Z,43.50
2019-05-06T16:26:25.639Z,43.50
2019-05-06T16:28:55.941Z,43.00
2019-05-06T16:31:26.101Z,43.20
2019-05-06T16:33:56.273Z,43.40
2019-05-06T16:36:26.412Z,43.50
2019-05-06T16:38:56.601Z,43.70
2019-05-06T16:41:26.774Z,42.80
2019-05-06T16:43:57.041Z,43.60
2019-05-06T16:46:28.942Z,43.50
2019-05-06T16:48:59.058Z,43.50
2019-05-06T16:51:29.243Z,43.30
2019-05-06T16:53:59.403Z,43.40
2019-05-06T16:56:44.715Z,43.50
2019-05-06T16:59:15.005Z,42.70
2019-05-06T17:01:46.133Z,43.30
2019-05-06T17:04:23.176Z,43.40
2019-05-06T17:06:54.643Z,43.60
2019-05-06T17:09:27.700Z,44.80
2019-05-06T17:11:56.918Z,43.90
2019-05-06T17:14:27.170Z,44.20
2019-05-06T17:16:57.716Z,44.20
2019-05-06T17:19:27.787Z,43.70
2019-05-06T17:21:57.995Z,44.40
2019-05-06T17:24:28.287Z,44.20
2019-05-06T17:26:58.738Z,44.10
2019-05-06T17:29:46.645Z,44.10
2019-05-06T17:32:44.919Z,44.50
2019-05-06T17:35:15.042Z,44.80
2019-05-06T17:37:54.510Z,45.20
2019-05-06T17:40:24.623Z,45.50
2019-05-06T17:43:06.515Z,46.20
2019-05-06T17:45:58.412Z,46.30
2019-05-06T17:48:55.380Z,45.90
2019-05-06T17:51:37.529Z,46.20
2019-05-06T17:54:07.709Z,47.00
2019-05-06T17:56:37.919Z,46.70
2019-05-06T17:59:08.167Z,46.60
2019-05-06T18:01:53.174Z,47.00
2019-05-06T18:04:23.455Z,48.00
2019-05-06T18:06:53.604Z,47.40
2019-05-06T18:09:23.846Z,48.70
2019-05-06T18:11:59.038Z,48.60
2019-05-06T18:14:25.944Z,48.40
2019-05-06T18:16:56.245Z,48.70
2019-05-06T18:19:26.366Z,49.10
2019-05-06T18:21:56.512Z,48.60
2019-05-06T18:24:27.932Z,49.40
2019-05-06T18:26:58.496Z,49.20
2019-05-06T18:29:28.656Z,50.20
2019-05-06T18:31:58.801Z,50.00
2019-05-06T18:34:29.130Z,49.90
2019-05-06T18:36:59.276Z,49.80
2019-05-06T18:39:29.479Z,50.10
2019-05-06T18:42:14.933Z,50.40
2019-05-06T18:44:33.382Z,50.60
2019-05-06T18:47:04.486Z,50.80
2019-05-06T18:49:34.709Z,51.50
2019-05-06T18:52:05.094Z,51.10
2019-05-06T18:54:46.570Z,51.30
2019-05-06T18:57:16.689Z,52.00
2019-05-06T18:59:46.931Z,52.40
2019-05-06T19:02:17.074Z,52.40
2019-05-06T19:05:06.300Z,52.80
2019-05-06T19:07:36.557Z,52.90
2019-05-06T19:10:12.833Z,53.00
2019-05-06T19:12:43.094Z,53.40
2019-05-06T19:15:13.474Z,53.20
2019-05-06T19:17:44.300Z,54.40
2019-05-06T19:20:15.980Z,53.80
2019-05-06T19:22:46.254Z,54.50
2019-05-06T19:25:16.455Z,55.60
2019-05-06T19:27:46.678Z,55.00
2019-05-06T19:30:18.323Z,55.30
2019-05-06T19:32:48.513Z,55.70
2019-05-06T19:35:18.702Z,56.50
2019-05-06T19:37:48.838Z,56.40
2019-05-06T19:40:19.124Z,57.00
2019-05-06T19:42:51.167Z,56.60
2019-05-06T19:45:22.436Z,57.40
2019-05-06T19:47:53.877Z,58.30
2019-05-06T19:50:26.057Z,58.10
2019-05-06T19:52:56.042Z,58.80
2019-05-06T19:55:26.334Z,58.80
2019-05-06T19:57:57.011Z,59.40
2019-05-06T20:00:32.473Z,59.60
2019-05-06T20:03:02.706Z,59.40
2019-05-06T20:05:39.055Z,59.70
2019-05-06T20:08:38.556Z,59.60
2019-05-06T20:11:15.172Z,59.70
2019-05-06T20:13:45.369Z,59.10
2019-05-06T20:16:15.536Z,59.80
2019-05-06T20:18:45.803Z,60.10
2019-05-06T20:21:16.111Z,60.30
2019-05-06T20:23:46.245Z,60.20
2019-05-06T20:26:16.807Z,60.20
2019-05-06T20:28:47.581Z,60.80
2019-05-06T20:31:17.722Z,60.90
2019-05-06T20:33:48.001Z,61.00
2019-05-06T20:36:18.245Z,61.50
2019-05-06T20:38:48.477Z,61.90
2019-05-06T20:41:18.781Z,62.60
2019-05-06T20:43:48.861Z,62.20
2019-05-06T20:46:18.943Z,61.70
2019-05-06T20:48:49.086Z,62.40
2019-05-06T20:51:19.257Z,62.40
2019-05-06T20:53:49.397Z,62.80
2019-05-06T20:56:21.824Z,62.40
2019-05-06T20:58:52.868Z,62.40
2019-05-06T21:01:23.221Z,62.80
2019-05-06T21:03:53.586Z,63.20
2019-05-06T21:06:23.635Z,63.30
2019-05-06T21:08:53.857Z,63.80
2019-05-06T21:11:29.005Z,64.60
2019-05-06T21:13:55.898Z,64.80
2019-05-06T21:16:26.033Z,65.30
2019-05-06T21:18:58.528Z,64.80
2019-05-06T21:21:29.131Z,65.70
2019-05-06T21:23:59.306Z,65.50
2019-05-06T21:26:29.502Z,65.80
2019-05-06T21:28:59.703Z,66.20
2019-05-06T21:31:32.608Z,66.60
2019-05-06T21:34:02.958Z,66.90
2019-05-06T21:36:33.129Z,67.40
2019-05-06T21:39:05.346Z,67.70
2019-05-06T21:41:35.521Z,67.80
2019-05-06T21:44:05.953Z,68.30
2019-05-06T21:46:37.057Z,69.00
2019-05-06T21:49:07.216Z,68.60
2019-05-06T21:51:37.353Z,69.20
2019-05-06T21:54:07.514Z,69.70
2019-05-06T21:56:37.755Z,70.80
2019-05-06T21:59:07.836Z,71.30
2019-05-06T22:01:38.508Z,71.40
2019-05-06T22:04:08.949Z,72.50
2019-05-06T22:06:39.089Z,73.00
2019-05-06T22:09:10.605Z,72.70
2019-05-06T22:11:42.315Z,73.50
2019-05-06T22:14:13.962Z,74.50
2019-05-06T22:16:44.215Z,75.00
2019-05-06T22:19:14.434Z,75.10
2019-05-06T22:22:03.655Z,74.80
2019-05-06T22:24:46.911Z,75.10
2019-05-06T22:27:17.829Z,75.90
2019-05-06T22:29:47.993Z,76.00
2019-05-06T22:32:18.185Z,77.50
2019-05-06T22:34:48.347Z,77.50
2019-05-06T22:37:18.538Z,78.00
2019-05-06T22:39:48.671Z,78.60
2019-05-06T22:42:18.805Z,78.90
2019-05-06T22:44:49.038Z,80.00
2019-05-06T22:47:19.175Z,80.10
2019-05-06T22:49:49.314Z,80.70
2019-05-06T22:52:19.559Z,81.70
2019-05-06T22:54:49.745Z,81.80
2019-05-06T22:57:19.989Z,82.50
2019-05-06T22:59:52.227Z,83.80
2019-05-06T23:02:27.978Z,83.60
2019-05-06T23:04:59.788Z,83.80
2019-05-06T23:07:30.031Z,83.50
2019-05-06T23:10:00.077Z,84.30
2019-05-06T23:12:32.444Z,86.00
2019-05-06T23:15:02.667Z,85.90
2019-05-06T23:17:34.458Z,86.60
2019-05-06T23:20:05.427Z,86.60
2019-05-06T23:22:35.505Z,86.80
2019-05-06T23:25:05.906Z,87.00
2019-05-06T23:27:36.051Z,87.70
2019-05-06T23:30:06.845Z,88.00
2019-05-06T23:32:37.002Z,87.40
2019-05-06T23:35:08.425Z,88.20
2019-05-06T23:38:14.542Z,88.60
2019-05-06T23:41:21.940Z,89.00
2019-05-06T23:44:35.903Z,89.40
2019-05-06T23:47:36.317Z,90.00
2019-05-06T23:50:43.329Z,90.20
2019-05-06T23:53:49.390Z,90.30
2019-05-06T23:56:44.027Z,90.60
2019-05-06T23:59:15.510Z,91.30
